sensor_id;sensor_type;location;lat;lon;timestamp;P1;durP1;ratioP1;P2;durP2;ratioP2
75044;SDS011;63614;56.026;35.960;2024-03-17T00:02:21;57.65;;;9.50;;
75044;SDS011;63614;56.026;35.960;2024-03-17T00:04:47;59.50;;;10.23;;
75044;SDS011;63614;56.026;35.960;2024-03-17T00:07:13;73.00;;;10.25;;
75044;SDS011;63614;56.026;35.960;2024-03-17T00:09:40;74.95;;;11.50;;
75044;SDS011;63614;56.026;35.960;2024-03-17T00:12:06;64.32;;;10.35;;
75044;SDS011;63614;56.026;35.960;2024-03-17T00:14:33;79.95;;;11.10;;
75044;SDS011;63614;56.026;35.960;2024-03-17T00:17:04;64.70;;;10.90;;
75044;SDS011;63614;56.026;35.960;2024-03-17T00:19:30;67.72;;;10.50;;
75044;SDS011;63614;56.026;35.960;2024-03-17T00:21:56;69.18;;;10.18;;
75044;SDS011;63614;56.026;35.960;2024-03-17T00:24:21;64.20;;;10.43;;
75044;SDS011;63614;56.026;35.960;2024-03-17T00:26:47;55.47;;;10.63;;
75044;SDS011;63614;56.026;35.960;2024-03-17T00:29:14;66.60;;;10.80;;
75044;SDS011;63614;56.026;35.960;2024-03-17T00:31:41;78.70;;;10.75;;
75044;SDS011;63614;56.026;35.960;2024-03-17T00:34:07;81.22;;;11.00;;
75044;SDS011;63614;56.026;35.960;2024-03-17T00:36:34;57.97;;;10.02;;
75044;SDS011;63614;56.026;35.960;2024-03-17T00:39:00;74.82;;;10.75;;
75044;SDS011;63614;56.026;35.960;2024-03-17T00:41:26;105.13;;;12.73;;
75044;SDS011;63614;56.026;35.960;2024-03-17T00:43:52;70.13;;;10.82;;
75044;SDS011;63614;56.026;35.960;2024-03-17T00:46:20;81.75;;;11.35;;
75044;SDS011;63614;56.026;35.960;2024-03-17T00:48:47;81.30;;;11.63;;
75044;SDS011;63614;56.026;35.960;2024-03-17T00:51:14;69.20;;;12.63;;
75044;SDS011;63614;56.026;35.960;2024-03-17T00:53:40;67.07;;;11.38;;
75044;SDS011;63614;56.026;35.960;2024-03-17T00:56:06;75.85;;;11.05;;
75044;SDS011;63614;56.026;35.960;2024-03-17T00:58:31;74.20;;;11.23;;
75044;SDS011;63614;56.026;35.960;2024-03-17T01:00:57;74.93;;;11.55;;
75044;SDS011;63614;56.026;35.960;2024-03-17T01:03:23;78.20;;;11.25;;
75044;SDS011;63614;56.026;35.960;2024-03-17T01:05:49;86.68;;;12.38;;
75044;SDS011;63614;56.026;35.960;2024-03-17T01:08:18;86.28;;;12.20;;
75044;SDS011;63614;56.026;35.960;2024-03-17T01:10:45;78.00;;;11.77;;
75044;SDS011;63614;56.026;35.960;2024-03-17T01:13:17;67.32;;;11.10;;
75044;SDS011;63614;56.026;35.960;2024-03-17T01:15:43;92.80;;;12.67;;
75044;SDS011;63614;56.026;35.960;2024-03-17T01:18:09;75.43;;;11.60;;
75044;SDS011;63614;56.026;35.960;2024-03-17T01:20:35;74.63;;;11.70;;
75044;SDS011;63614;56.026;35.960;2024-03-17T01:23:02;74.95;;;12.93;;
75044;SDS011;63614;56.026;35.960;2024-03-17T01:25:29;77.13;;;11.20;;
75044;SDS011;63614;56.026;35.960;2024-03-17T01:27:55;84.85;;;11.38;;
75044;SDS011;63614;56.026;35.960;2024-03-17T01:30:22;73.45;;;12.57;;
75044;SDS011;63614;56.026;35.960;2024-03-17T01:32:48;81.90;;;13.18;;
75044;SDS011;63614;56.026;35.960;2024-03-17T01:35:16;75.65;;;12.07;;
75044;SDS011;63614;56.026;35.960;2024-03-17T01:37:42;71.15;;;12.05;;
75044;SDS011;63614;56.026;35.960;2024-03-17T01:40:08;62.47;;;12.10;;
75044;SDS011;63614;56.026;35.960;2024-03-17T01:42:36;60.45;;;11.23;;
75044;SDS011;63614;56.026;35.960;2024-03-17T01:47:44;60.40;;;11.18;;
75044;SDS011;63614;56.026;35.960;2024-03-17T01:50:10;72.35;;;11.38;;
75044;SDS011;63614;56.026;35.960;2024-03-17T01:52:38;65.75;;;10.80;;
75044;SDS011;63614;56.026;35.960;2024-03-17T01:55:05;68.40;;;11.45;;
75044;SDS011;63614;56.026;35.960;2024-03-17T01:57:32;67.93;;;12.55;;
75044;SDS011;63614;56.026;35.960;2024-03-17T01:59:58;69.55;;;11.73;;
75044;SDS011;63614;56.026;35.960;2024-03-17T02:02:25;56.67;;;11.82;;
75044;SDS011;63614;56.026;35.960;2024-03-17T02:04:51;57.33;;;11.07;;
75044;SDS011;63614;56.026;35.960;2024-03-17T02:07:18;75.33;;;11.63;;
75044;SDS011;63614;56.026;35.960;2024-03-17T02:09:44;80.22;;;12.02;;
75044;SDS011;63614;56.026;35.960;2024-03-17T02:12:09;70.85;;;12.15;;
75044;SDS011;63614;56.026;35.960;2024-03-17T02:14:37;95.10;;;12.65;;
75044;SDS011;63614;56.026;35.960;2024-03-17T02:17:04;75.78;;;15.50;;
75044;SDS011;63614;56.026;35.960;2024-03-17T02:19:29;70.90;;;11.38;;
75044;SDS011;63614;56.026;35.960;2024-03-17T02:21:56;90.35;;;12.23;;
75044;SDS011;63614;56.026;35.960;2024-03-17T02:24:22;77.93;;;12.63;;
75044;SDS011;63614;56.026;35.960;2024-03-17T02:26:48;64.30;;;12.13;;
75044;SDS011;63614;56.026;35.960;2024-03-17T02:29:14;80.63;;;12.63;;
75044;SDS011;63614;56.026;35.960;2024-03-17T02:31:40;68.45;;;12.45;;
75044;SDS011;63614;56.026;35.960;2024-03-17T02:34:05;60.00;;;11.80;;
75044;SDS011;63614;56.026;35.960;2024-03-17T02:36:31;81.75;;;10.90;;
75044;SDS011;63614;56.026;35.960;2024-03-17T02:38:57;83.78;;;11.40;;
75044;SDS011;63614;56.026;35.960;2024-03-17T02:41:42;73.15;;;12.27;;
75044;SDS011;63614;56.026;35.960;2024-03-17T02:44:08;77.50;;;12.63;;
75044;SDS011;63614;56.026;35.960;2024-03-17T02:46:34;67.53;;;12.23;;
75044;SDS011;63614;56.026;35.960;2024-03-17T02:49:00;76.95;;;11.73;;
75044;SDS011;63614;56.026;35.960;2024-03-17T02:51:26;77.28;;;11.35;;
75044;SDS011;63614;56.026;35.960;2024-03-17T02:53:51;81.45;;;12.45;;
75044;SDS011;63614;56.026;35.960;2024-03-17T02:56:17;77.60;;;11.57;;
75044;SDS011;63614;56.026;35.960;2024-03-17T02:58:44;74.33;;;12.40;;
75044;SDS011;63614;56.026;35.960;2024-03-17T03:01:17;70.85;;;12.07;;
75044;SDS011;63614;56.026;35.960;2024-03-17T03:03:43;67.80;;;11.50;;
75044;SDS011;63614;56.026;35.960;2024-03-17T03:06:10;61.70;;;11.30;;
75044;SDS011;63614;56.026;35.960;2024-03-17T03:08:40;66.60;;;11.73;;
75044;SDS011;63614;56.026;35.960;2024-03-17T03:11:08;59.03;;;10.27;;
75044;SDS011;63614;56.026;35.960;2024-03-17T03:13:38;74.53;;;12.20;;
75044;SDS011;63614;56.026;35.960;2024-03-17T03:16:08;68.75;;;11.63;;
75044;SDS011;63614;56.026;35.960;2024-03-17T03:18:39;71.20;;;11.60;;
75044;SDS011;63614;56.026;35.960;2024-03-17T03:21:06;52.07;;;11.40;;
75044;SDS011;63614;56.026;35.960;2024-03-17T03:23:32;55.42;;;11.45;;
75044;SDS011;63614;56.026;35.960;2024-03-17T03:25:59;68.95;;;11.65;;
75044;SDS011;63614;56.026;35.960;2024-03-17T03:28:29;53.28;;;11.60;;
75044;SDS011;63614;56.026;35.960;2024-03-17T03:33:21;54.45;;;11.18;;
75044;SDS011;63614;56.026;35.960;2024-03-17T03:35:48;69.95;;;12.15;;
75044;SDS011;63614;56.026;35.960;2024-03-17T03:38:14;62.25;;;10.95;;
75044;SDS011;63614;56.026;35.960;2024-03-17T03:40:40;78.35;;;11.32;;
75044;SDS011;63614;56.026;35.960;2024-03-17T03:43:07;67.20;;;11.83;;
75044;SDS011;63614;56.026;35.960;2024-03-17T03:45:34;73.30;;;11.73;;
75044;SDS011;63614;56.026;35.960;2024-03-17T03:48:01;87.15;;;11.77;;
75044;SDS011;63614;56.026;35.960;2024-03-17T03:50:28;71.53;;;12.70;;
75044;SDS011;63614;56.026;35.960;2024-03-17T03:52:54;48.80;;;11.70;;
75044;SDS011;63614;56.026;35.960;2024-03-17T03:55:20;42.22;;;10.93;;
75044;SDS011;63614;56.026;35.960;2024-03-17T03:57:46;63.92;;;11.65;;
75044;SDS011;63614;56.026;35.960;2024-03-17T04:00:14;59.03;;;12.25;;
75044;SDS011;63614;56.026;35.960;2024-03-17T04:02:40;43.20;;;10.57;;
75044;SDS011;63614;56.026;35.960;2024-03-17T04:05:08;49.83;;;11.00;;
75044;SDS011;63614;56.026;35.960;2024-03-17T04:07:34;60.15;;;11.88;;
75044;SDS011;63614;56.026;35.960;2024-03-17T04:10:01;53.20;;;11.55;;
75044;SDS011;63614;56.026;35.960;2024-03-17T04:12:30;60.53;;;11.48;;
75044;SDS011;63614;56.026;35.960;2024-03-17T04:14:59;57.60;;;11.07;;
75044;SDS011;63614;56.026;35.960;2024-03-17T04:17:25;72.93;;;11.10;;
75044;SDS011;63614;56.026;35.960;2024-03-17T04:19:53;61.33;;;12.80;;
75044;SDS011;63614;56.026;35.960;2024-03-17T04:22:19;48.50;;;12.47;;
75044;SDS011;63614;56.026;35.960;2024-03-17T04:24:47;46.85;;;10.63;;
75044;SDS011;63614;56.026;35.960;2024-03-17T04:27:24;49.42;;;12.52;;
75044;SDS011;63614;56.026;35.960;2024-03-17T04:29:52;57.17;;;12.63;;
75044;SDS011;63614;56.026;35.960;2024-03-17T04:32:19;59.13;;;11.93;;
75044;SDS011;63614;56.026;35.960;2024-03-17T04:34:46;55.88;;;11.82;;
75044;SDS011;63614;56.026;35.960;2024-03-17T04:37:14;61.85;;;12.40;;
75044;SDS011;63614;56.026;35.960;2024-03-17T04:39:44;46.63;;;11.68;;
75044;SDS011;63614;56.026;35.960;2024-03-17T04:42:12;51.60;;;10.95;;
75044;SDS011;63614;56.026;35.960;2024-03-17T04:44:45;58.00;;;11.45;;
75044;SDS011;63614;56.026;35.960;2024-03-17T04:47:11;57.53;;;11.75;;
75044;SDS011;63614;56.026;35.960;2024-03-17T04:49:38;42.17;;;10.88;;
75044;SDS011;63614;56.026;35.960;2024-03-17T04:52:11;58.75;;;11.38;;
75044;SDS011;63614;56.026;35.960;2024-03-17T04:54:37;43.23;;;11.93;;
75044;SDS011;63614;56.026;35.960;2024-03-17T04:57:03;53.10;;;10.98;;
75044;SDS011;63614;56.026;35.960;2024-03-17T04:59:30;68.47;;;11.60;;
75044;SDS011;63614;56.026;35.960;2024-03-17T05:01:59;50.03;;;11.65;;
75044;SDS011;63614;56.026;35.960;2024-03-17T05:04:25;36.65;;;11.55;;
75044;SDS011;63614;56.026;35.960;2024-03-17T05:06:51;49.97;;;11.38;;
75044;SDS011;63614;56.026;35.960;2024-03-17T05:09:17;48.42;;;12.32;;
75044;SDS011;63614;56.026;35.960;2024-03-17T05:11:43;50.35;;;11.65;;
75044;SDS011;63614;56.026;35.960;2024-03-17T05:14:09;41.97;;;10.88;;
75044;SDS011;63614;56.026;35.960;2024-03-17T05:16:36;40.58;;;12.45;;
75044;SDS011;63614;56.026;35.960;2024-03-17T05:19:02;46.55;;;12.80;;
75044;SDS011;63614;56.026;35.960;2024-03-17T05:21:29;43.28;;;11.82;;
75044;SDS011;63614;56.026;35.960;2024-03-17T05:24:00;45.67;;;11.50;;
75044;SDS011;63614;56.026;35.960;2024-03-17T05:26:26;60.92;;;11.95;;
75044;SDS011;63614;56.026;35.960;2024-03-17T05:28:52;44.05;;;12.00;;
75044;SDS011;63614;56.026;35.960;2024-03-17T05:31:21;47.15;;;10.95;;
75044;SDS011;63614;56.026;35.960;2024-03-17T05:33:48;54.65;;;10.98;;
75044;SDS011;63614;56.026;35.960;2024-03-17T05:36:14;53.90;;;11.80;;
75044;SDS011;63614;56.026;35.960;2024-03-17T05:38:41;67.93;;;11.20;;
75044;SDS011;63614;56.026;35.960;2024-03-17T05:41:07;63.67;;;12.00;;
75044;SDS011;63614;56.026;35.960;2024-03-17T05:43:36;38.70;;;10.50;;
75044;SDS011;63614;56.026;35.960;2024-03-17T05:46:09;52.40;;;11.43;;
75044;SDS011;63614;56.026;35.960;2024-03-17T05:48:37;44.70;;;9.98;;
75044;SDS011;63614;56.026;35.960;2024-03-17T05:51:05;44.35;;;11.10;;
75044;SDS011;63614;56.026;35.960;2024-03-17T05:53:31;48.58;;;12.30;;
75044;SDS011;63614;56.026;35.960;2024-03-17T05:56:01;53.00;;;11.82;;
75044;SDS011;63614;56.026;35.960;2024-03-17T05:58:28;46.35;;;11.05;;
75044;SDS011;63614;56.026;35.960;2024-03-17T06:00:54;44.10;;;11.82;;
75044;SDS011;63614;56.026;35.960;2024-03-17T06:03:20;45.70;;;11.35;;
75044;SDS011;63614;56.026;35.960;2024-03-17T06:05:47;42.57;;;13.07;;
75044;SDS011;63614;56.026;35.960;2024-03-17T06:08:14;44.33;;;11.57;;
75044;SDS011;63614;56.026;35.960;2024-03-17T06:10:44;63.53;;;11.35;;
75044;SDS011;63614;56.026;35.960;2024-03-17T06:13:12;51.65;;;11.82;;
75044;SDS011;63614;56.026;35.960;2024-03-17T06:15:41;47.28;;;11.25;;
75044;SDS011;63614;56.026;35.960;2024-03-17T06:18:07;47.88;;;12.07;;
75044;SDS011;63614;56.026;35.960;2024-03-17T06:20:35;39.10;;;10.98;;
75044;SDS011;63614;56.026;35.960;2024-03-17T06:23:07;55.00;;;11.35;;
75044;SDS011;63614;56.026;35.960;2024-03-17T06:25:48;42.63;;;11.55;;
75044;SDS011;63614;56.026;35.960;2024-03-17T06:28:16;53.75;;;12.70;;
75044;SDS011;63614;56.026;35.960;2024-03-17T06:30:54;44.00;;;13.10;;
75044;SDS011;63614;56.026;35.960;2024-03-17T06:33:25;38.35;;;10.82;;
75044;SDS011;63614;56.026;35.960;2024-03-17T06:35:51;41.08;;;11.68;;
75044;SDS011;63614;56.026;35.960;2024-03-17T06:38:17;38.13;;;10.18;;
75044;SDS011;63614;56.026;35.960;2024-03-17T06:40:49;51.92;;;11.85;;
75044;SDS011;63614;56.026;35.960;2024-03-17T06:43:19;48.22;;;11.98;;
75044;SDS011;63614;56.026;35.960;2024-03-17T06:45:55;57.40;;;12.25;;
75044;SDS011;63614;56.026;35.960;2024-03-17T06:48:23;34.92;;;10.18;;
75044;SDS011;63614;56.026;35.960;2024-03-17T06:50:50;57.25;;;11.75;;
75044;SDS011;63614;56.026;35.960;2024-03-17T06:53:22;36.95;;;11.50;;
75044;SDS011;63614;56.026;35.960;2024-03-17T06:55:52;46.85;;;10.02;;
75044;SDS011;63614;56.026;35.960;2024-03-17T06:58:22;41.90;;;10.57;;
75044;SDS011;63614;56.026;35.960;2024-03-17T07:01:01;37.47;;;11.13;;
75044;SDS011;63614;56.026;35.960;2024-03-17T07:03:31;54.92;;;10.93;;
75044;SDS011;63614;56.026;35.960;2024-03-17T07:06:01;45.53;;;11.00;;
75044;SDS011;63614;56.026;35.960;2024-03-17T07:08:29;54.20;;;11.23;;
75044;SDS011;63614;56.026;35.960;2024-03-17T07:13:27;54.92;;;11.25;;
75044;SDS011;63614;56.026;35.960;2024-03-17T07:16:01;47.00;;;9.88;;
75044;SDS011;63614;56.026;35.960;2024-03-17T07:18:28;37.75;;;10.52;;
75044;SDS011;63614;56.026;35.960;2024-03-17T07:20:58;38.53;;;10.80;;
75044;SDS011;63614;56.026;35.960;2024-03-17T07:23:25;46.08;;;11.60;;
75044;SDS011;63614;56.026;35.960;2024-03-17T07:25:55;53.33;;;10.75;;
75044;SDS011;63614;56.026;35.960;2024-03-17T07:28:25;47.25;;;10.13;;
75044;SDS011;63614;56.026;35.960;2024-03-17T07:30:51;40.05;;;10.48;;
75044;SDS011;63614;56.026;35.960;2024-03-17T07:33:19;52.40;;;9.98;;
75044;SDS011;63614;56.026;35.960;2024-03-17T07:36:03;58.33;;;10.55;;
75044;SDS011;63614;56.026;35.960;2024-03-17T07:38:30;56.95;;;10.93;;
75044;SDS011;63614;56.026;35.960;2024-03-17T07:43:24;43.92;;;11.30;;
75044;SDS011;63614;56.026;35.960;2024-03-17T07:46:00;42.38;;;11.93;;
75044;SDS011;63614;56.026;35.960;2024-03-17T07:48:29;39.03;;;10.77;;
75044;SDS011;63614;56.026;35.960;2024-03-17T07:50:57;56.50;;;11.45;;
75044;SDS011;63614;56.026;35.960;2024-03-17T07:53:24;45.60;;;11.55;;
75044;SDS011;63614;56.026;35.960;2024-03-17T07:56:03;46.15;;;10.88;;
75044;SDS011;63614;56.026;35.960;2024-03-17T07:58:36;37.67;;;11.13;;
75044;SDS011;63614;56.026;35.960;2024-03-17T08:01:06;30.40;;;9.85;;
75044;SDS011;63614;56.026;35.960;2024-03-17T08:03:42;36.35;;;10.43;;
75044;SDS011;63614;56.026;35.960;2024-03-17T08:06:10;37.22;;;9.35;;
75044;SDS011;63614;56.026;35.960;2024-03-17T08:08:36;33.30;;;11.07;;
75044;SDS011;63614;56.026;35.960;2024-03-17T08:11:03;46.08;;;11.73;;
75044;SDS011;63614;56.026;35.960;2024-03-17T08:13:30;39.65;;;11.88;;
75044;SDS011;63614;56.026;35.960;2024-03-17T08:16:06;45.35;;;11.90;;
75044;SDS011;63614;56.026;35.960;2024-03-17T08:18:35;52.53;;;11.13;;
75044;SDS011;63614;56.026;35.960;2024-03-17T08:21:02;46.05;;;10.75;;
75044;SDS011;63614;56.026;35.960;2024-03-17T08:23:30;51.55;;;11.57;;
75044;SDS011;63614;56.026;35.960;2024-03-17T08:25:56;43.03;;;11.18;;
75044;SDS011;63614;56.026;35.960;2024-03-17T08:28:23;48.15;;;11.68;;
75044;SDS011;63614;56.026;35.960;2024-03-17T08:33:23;42.80;;;12.40;;
75044;SDS011;63614;56.026;35.960;2024-03-17T08:35:57;43.30;;;12.03;;
75044;SDS011;63614;56.026;35.960;2024-03-17T08:38:24;28.70;;;11.02;;
75044;SDS011;63614;56.026;35.960;2024-03-17T08:40:53;44.42;;;11.02;;
75044;SDS011;63614;56.026;35.960;2024-03-17T08:43:20;44.03;;;11.85;;
75044;SDS011;63614;56.026;35.960;2024-03-17T08:48:25;44.20;;;11.40;;
75044;SDS011;63614;56.026;35.960;2024-03-17T08:50:52;49.20;;;12.80;;
75044;SDS011;63614;56.026;35.960;2024-03-17T08:53:19;47.40;;;11.80;;
75044;SDS011;63614;56.026;35.960;2024-03-17T08:55:46;43.90;;;10.90;;
75044;SDS011;63614;56.026;35.960;2024-03-17T08:58:11;47.65;;;10.35;;
75044;SDS011;63614;56.026;35.960;2024-03-17T09:00:37;34.65;;;10.55;;
75044;SDS011;63614;56.026;35.960;2024-03-17T09:03:03;35.72;;;10.15;;
75044;SDS011;63614;56.026;35.960;2024-03-17T09:05:33;47.40;;;9.93;;
75044;SDS011;63614;56.026;35.960;2024-03-17T09:07:59;47.85;;;11.27;;
75044;SDS011;63614;56.026;35.960;2024-03-17T09:10:24;45.05;;;10.25;;
75044;SDS011;63614;56.026;35.960;2024-03-17T09:12:50;46.97;;;8.82;;
75044;SDS011;63614;56.026;35.960;2024-03-17T09:15:16;34.88;;;9.63;;
75044;SDS011;63614;56.026;35.960;2024-03-17T09:17:42;31.30;;;10.98;;
75044;SDS011;63614;56.026;35.960;2024-03-17T09:20:10;35.63;;;10.32;;
75044;SDS011;63614;56.026;35.960;2024-03-17T09:22:38;32.08;;;10.15;;
75044;SDS011;63614;56.026;35.960;2024-03-17T09:25:07;31.83;;;10.82;;
75044;SDS011;63614;56.026;35.960;2024-03-17T09:27:34;40.63;;;10.73;;
75044;SDS011;63614;56.026;35.960;2024-03-17T09:30:03;30.02;;;9.60;;
75044;SDS011;63614;56.026;35.960;2024-03-17T09:32:37;34.13;;;9.57;;
75044;SDS011;63614;56.026;35.960;2024-03-17T09:35:04;43.60;;;10.05;;
75044;SDS011;63614;56.026;35.960;2024-03-17T09:37:30;35.50;;;10.13;;
75044;SDS011;63614;56.026;35.960;2024-03-17T09:39:59;39.97;;;10.10;;
75044;SDS011;63614;56.026;35.960;2024-03-17T09:42:26;29.27;;;10.32;;
75044;SDS011;63614;56.026;35.960;2024-03-17T09:44:55;29.95;;;9.40;;
75044;SDS011;63614;56.026;35.960;2024-03-17T09:47:22;36.72;;;10.98;;
75044;SDS011;63614;56.026;35.960;2024-03-17T09:49:50;34.38;;;10.23;;
75044;SDS011;63614;56.026;35.960;2024-03-17T09:52:20;31.63;;;10.53;;
75044;SDS011;63614;56.026;35.960;2024-03-17T09:55:09;37.55;;;10.10;;
75044;SDS011;63614;56.026;35.960;2024-03-17T09:57:38;36.38;;;10.07;;
75044;SDS011;63614;56.026;35.960;2024-03-17T10:00:13;28.48;;;10.10;;
75044;SDS011;63614;56.026;35.960;2024-03-17T10:02:46;36.72;;;10.35;;
75044;SDS011;63614;56.026;35.960;2024-03-17T10:07:49;41.88;;;13.05;;
75044;SDS011;63614;56.026;35.960;2024-03-17T10:10:16;38.07;;;11.70;;
75044;SDS011;63614;56.026;35.960;2024-03-17T10:12:48;28.98;;;9.82;;
75044;SDS011;63614;56.026;35.960;2024-03-17T10:15:18;39.83;;;10.45;;
75044;SDS011;63614;56.026;35.960;2024-03-17T10:17:44;33.58;;;10.27;;
75044;SDS011;63614;56.026;35.960;2024-03-17T10:20:11;37.20;;;10.57;;
75044;SDS011;63614;56.026;35.960;2024-03-17T10:22:38;45.67;;;10.40;;
75044;SDS011;63614;56.026;35.960;2024-03-17T10:25:03;28.00;;;11.05;;
75044;SDS011;63614;56.026;35.960;2024-03-17T10:27:31;36.75;;;10.02;;
75044;SDS011;63614;56.026;35.960;2024-03-17T10:29:58;51.70;;;11.20;;
75044;SDS011;63614;56.026;35.960;2024-03-17T10:32:23;35.85;;;10.65;;
75044;SDS011;63614;56.026;35.960;2024-03-17T10:34:51;35.85;;;9.65;;
75044;SDS011;63614;56.026;35.960;2024-03-17T10:37:17;40.25;;;10.55;;
75044;SDS011;63614;56.026;35.960;2024-03-17T10:39:52;37.83;;;10.65;;
75044;SDS011;63614;56.026;35.960;2024-03-17T10:42:23;31.15;;;9.95;;
75044;SDS011;63614;56.026;35.960;2024-03-17T10:44:54;38.50;;;10.40;;
75044;SDS011;63614;56.026;35.960;2024-03-17T10:47:25;39.90;;;11.18;;
75044;SDS011;63614;56.026;35.960;2024-03-17T10:49:53;28.17;;;10.40;;
75044;SDS011;63614;56.026;35.960;2024-03-17T10:52:21;36.63;;;10.57;;
75044;SDS011;63614;56.026;35.960;2024-03-17T10:54:52;45.80;;;11.07;;
75044;SDS011;63614;56.026;35.960;2024-03-17T11:00:00;38.33;;;10.07;;
75044;SDS011;63614;56.026;35.960;2024-03-17T11:02:30;34.40;;;10.27;;
75044;SDS011;63614;56.026;35.960;2024-03-17T11:05:02;39.67;;;11.27;;
75044;SDS011;63614;56.026;35.960;2024-03-17T11:07:31;41.33;;;10.23;;
75044;SDS011;63614;56.026;35.960;2024-03-17T11:10:03;39.10;;;10.90;;
75044;SDS011;63614;56.026;35.960;2024-03-17T11:17:54;33.45;;;11.32;;
75044;SDS011;63614;56.026;35.960;2024-03-17T11:20:28;37.55;;;10.70;;
75044;SDS011;63614;56.026;35.960;2024-03-17T11:22:55;29.48;;;10.90;;
75044;SDS011;63614;56.026;35.960;2024-03-17T11:27:58;38.97;;;11.30;;
75044;SDS011;63614;56.026;35.960;2024-03-17T11:38:57;41.25;;;11.13;;
75044;SDS011;63614;56.026;35.960;2024-03-17T11:41:55;35.55;;;10.75;;
75044;SDS011;63614;56.026;35.960;2024-03-17T11:44:36;36.38;;;11.38;;
75044;SDS011;63614;56.026;35.960;2024-03-17T11:47:03;46.83;;;11.00;;
75044;SDS011;63614;56.026;35.960;2024-03-17T11:49:31;36.80;;;11.05;;
75044;SDS011;63614;56.026;35.960;2024-03-17T11:51:58;36.80;;;12.73;;
75044;SDS011;63614;56.026;35.960;2024-03-17T11:54:30;47.25;;;11.30;;
75044;SDS011;63614;56.026;35.960;2024-03-17T11:57:00;41.00;;;11.55;;
75044;SDS011;63614;56.026;35.960;2024-03-17T11:59:28;33.22;;;11.30;;
75044;SDS011;63614;56.026;35.960;2024-03-17T12:01:54;34.67;;;11.20;;
75044;SDS011;63614;56.026;35.960;2024-03-17T12:04:22;28.52;;;11.25;;
75044;SDS011;63614;56.026;35.960;2024-03-17T12:06:49;35.13;;;10.90;;
75044;SDS011;63614;56.026;35.960;2024-03-17T12:09:20;45.63;;;11.25;;
75044;SDS011;63614;56.026;35.960;2024-03-17T12:11:48;33.45;;;11.18;;
75044;SDS011;63614;56.026;35.960;2024-03-17T12:14:17;37.58;;;10.77;;
75044;SDS011;63614;56.026;35.960;2024-03-17T12:16:55;29.77;;;11.43;;
75044;SDS011;63614;56.026;35.960;2024-03-17T12:19:22;40.97;;;11.05;;
75044;SDS011;63614;56.026;35.960;2024-03-17T12:21:49;41.55;;;11.35;;
75044;SDS011;63614;56.026;35.960;2024-03-17T12:26:43;34.72;;;10.90;;
75044;SDS011;63614;56.026;35.960;2024-03-17T12:29:24;28.92;;;10.40;;
75044;SDS011;63614;56.026;35.960;2024-03-17T12:31:59;38.08;;;11.65;;
75044;SDS011;63614;56.026;35.960;2024-03-17T12:34:27;25.83;;;10.85;;
75044;SDS011;63614;56.026;35.960;2024-03-17T12:36:56;37.00;;;11.32;;
75044;SDS011;63614;56.026;35.960;2024-03-17T12:39:24;38.45;;;10.50;;
75044;SDS011;63614;56.026;35.960;2024-03-17T12:42:11;33.22;;;11.45;;
75044;SDS011;63614;56.026;35.960;2024-03-17T12:44:47;37.05;;;11.27;;
75044;SDS011;63614;56.026;35.960;2024-03-17T12:49:53;33.15;;;10.90;;
75044;SDS011;63614;56.026;35.960;2024-03-17T13:01:02;43.88;;;10.35;;
75044;SDS011;63614;56.026;35.960;2024-03-17T13:03:33;35.13;;;11.52;;
75044;SDS011;63614;56.026;35.960;2024-03-17T13:06:01;23.13;;;11.32;;
75044;SDS011;63614;56.026;35.960;2024-03-17T13:08:34;34.17;;;11.60;;
75044;SDS011;63614;56.026;35.960;2024-03-17T13:11:01;40.50;;;11.07;;
75044;SDS011;63614;56.026;35.960;2024-03-17T13:13:30;30.33;;;10.45;;
75044;SDS011;63614;56.026;35.960;2024-03-17T13:15:56;26.45;;;10.38;;
75044;SDS011;63614;56.026;35.960;2024-03-17T13:18:22;36.50;;;10.95;;
75044;SDS011;63614;56.026;35.960;2024-03-17T13:20:48;30.58;;;10.63;;
75044;SDS011;63614;56.026;35.960;2024-03-17T13:23:15;32.67;;;10.70;;
75044;SDS011;63614;56.026;35.960;2024-03-17T13:25:41;36.88;;;11.65;;
75044;SDS011;63614;56.026;35.960;2024-03-17T13:28:09;28.70;;;9.93;;
75044;SDS011;63614;56.026;35.960;2024-03-17T13:30:35;36.10;;;10.52;;
75044;SDS011;63614;56.026;35.960;2024-03-17T13:33:02;30.23;;;10.82;;
75044;SDS011;63614;56.026;35.960;2024-03-17T13:35:35;28.02;;;11.05;;
75044;SDS011;63614;56.026;35.960;2024-03-17T13:38:08;41.33;;;10.77;;
75044;SDS011;63614;56.026;35.960;2024-03-17T13:40:37;27.48;;;9.93;;
75044;SDS011;63614;56.026;35.960;2024-03-17T13:43:04;39.50;;;10.98;;
75044;SDS011;63614;56.026;35.960;2024-03-17T13:45:40;22.63;;;10.43;;
75044;SDS011;63614;56.026;35.960;2024-03-17T13:48:08;28.13;;;11.88;;
75044;SDS011;63614;56.026;35.960;2024-03-17T13:50:38;26.90;;;9.65;;
75044;SDS011;63614;56.026;35.960;2024-03-17T13:53:08;42.47;;;11.70;;
75044;SDS011;63614;56.026;35.960;2024-03-17T13:55:34;34.33;;;11.90;;
75044;SDS011;63614;56.026;35.960;2024-03-17T13:58:01;31.17;;;10.40;;
75044;SDS011;63614;56.026;35.960;2024-03-17T14:00:28;32.45;;;10.85;;
75044;SDS011;63614;56.026;35.960;2024-03-17T14:02:55;32.60;;;11.13;;
75044;SDS011;63614;56.026;35.960;2024-03-17T14:05:27;37.20;;;10.60;;
75044;SDS011;63614;56.026;35.960;2024-03-17T14:07:54;37.42;;;10.82;;
75044;SDS011;63614;56.026;35.960;2024-03-17T14:12:47;30.88;;;10.43;;
75044;SDS011;63614;56.026;35.960;2024-03-17T14:15:14;29.05;;;10.25;;
75044;SDS011;63614;56.026;35.960;2024-03-17T14:17:41;30.00;;;10.52;;
75044;SDS011;63614;56.026;35.960;2024-03-17T14:20:11;27.92;;;10.68;;
75044;SDS011;63614;56.026;35.960;2024-03-17T14:22:41;32.95;;;10.35;;
75044;SDS011;63614;56.026;35.960;2024-03-17T14:25:08;35.33;;;11.07;;
75044;SDS011;63614;56.026;35.960;2024-03-17T14:27:50;32.53;;;10.75;;
75044;SDS011;63614;56.026;35.960;2024-03-17T14:30:17;27.35;;;11.30;;
75044;SDS011;63614;56.026;35.960;2024-03-17T14:32:45;32.00;;;10.05;;
75044;SDS011;63614;56.026;35.960;2024-03-17T14:35:15;28.67;;;9.85;;
75044;SDS011;63614;56.026;35.960;2024-03-17T14:37:43;36.78;;;10.85;;
75044;SDS011;63614;56.026;35.960;2024-03-17T14:40:14;39.40;;;12.52;;
75044;SDS011;63614;56.026;35.960;2024-03-17T14:42:49;26.90;;;10.05;;
75044;SDS011;63614;56.026;35.960;2024-03-17T14:45:19;28.50;;;10.65;;
75044;SDS011;63614;56.026;35.960;2024-03-17T14:47:45;29.80;;;11.02;;
75044;SDS011;63614;56.026;35.960;2024-03-17T14:50:12;38.88;;;10.45;;
75044;SDS011;63614;56.026;35.960;2024-03-17T14:52:38;23.13;;;9.35;;
75044;SDS011;63614;56.026;35.960;2024-03-17T14:55:06;30.10;;;10.60;;
75044;SDS011;63614;56.026;35.960;2024-03-17T14:57:32;25.92;;;9.90;;
75044;SDS011;63614;56.026;35.960;2024-03-17T14:59:58;36.40;;;11.77;;
75044;SDS011;63614;56.026;35.960;2024-03-17T15:02:24;26.60;;;10.43;;
75044;SDS011;63614;56.026;35.960;2024-03-17T15:04:52;38.10;;;12.48;;
75044;SDS011;63614;56.026;35.960;2024-03-17T15:07:18;34.33;;;11.02;;
75044;SDS011;63614;56.026;35.960;2024-03-17T15:09:43;30.13;;;10.38;;